Terminal Aerodrome Forecast
Issued by NWS

Current Version | Previous Version | Text Only | Print | Product List | Glossary On
Versions: 1 2 3 4 5 6 7 8 9 10 11 12 13 14 15 16
145
FTUS44 KLIX 301139
TAFGPT
TAF
KGPT 301139Z 3012/0112 36003KT P6SM VCTS SCT035CB
     FM301700 08005KT P6SM VCTS BKN050CB
     FM301900 14006KT P6SM BKN250
     FM302200 16007KT P6SM BKN250
     FM010300 VRB03KT P6SM SCT250=

USA.gov is the U.S. government's official web portal to all federal, state and local government web resources and services.